Time;durP1;ratioP1;P1;durP2;ratioP2;P2;SDS_P1;SDS_P2;PMS_P1;PMS_P2;Temp;Humidity;BMP_temperature;BMP_pressure;BME280_temperature;BME280_humidity;BME280_pressure;Samples;Min_cycle;Max_cycle;Signal;HPM_P1;HPM_P2
2023/12/01 00:01:49;;;;;;;;;;;3.90;1.00;;;;;;5016658;28;19910;-74
2023/12/01 00:04:14;;;;;;;;;;;3.80;1.00;;;;;;5018156;28;19924;-74
2023/12/01 00:06:40;;;;;;;;;;;3.90;1.00;;;;;;5018251;28;19913;-73
2023/12/01 00:09:05;;;;;;;;;;;3.90;1.00;;;;;;5018106;28;19931;-73
2023/12/01 00:14:34;;;;;;;;;;;3.90;1.00;;;;;;5017828;28;19916;-78
2023/12/01 00:17:36;;;;;;;;;;;3.90;1.00;;;;;;5017810;28;20285;-78
2023/12/01 00:23:31;;;;;;;;;;;3.80;1.00;;;;;;5025602;28;19989;-78
2023/12/01 00:25:57;;;;;;;;;;;3.80;1.00;;;;;;5018038;28;19914;-78
2023/12/01 00:28:49;;;;;;;;;;;3.70;1.00;;;;;;5018336;28;20361;-79
2023/12/01 00:31:19;;;;;;;;;;;3.70;1.00;;;;;;5022333;28;19909;-78
2023/12/01 00:33:44;;;;;;;;;;;3.60;1.00;;;;;;5025176;28;19910;-78
2023/12/01 00:36:10;;;;;;;;;;;3.60;1.00;;;;;;5030564;28;19944;-79
2023/12/01 00:38:37;;;;;;;;;;;3.60;1.00;;;;;;5017115;28;19984;-78
2023/12/01 00:41:14;;;;;;;;;;;3.40;1.00;;;;;;5017184;28;19916;-78
2023/12/01 00:44:01;;;;;;;;;;;3.30;1.00;;;;;;5017510;28;19913;-78
2023/12/01 00:52:33;;;;;;;;;;;3.40;1.00;;;;;;5016107;28;19959;-79
2023/12/01 00:58:07;;;;;;;;;;;3.40;1.00;;;;;;5017544;28;19961;-73
2023/12/01 01:00:37;;;;;;;;;;;3.40;1.00;;;;;;5016961;28;19909;-74
2023/12/01 01:03:07;;;;;;;;;;;3.30;1.00;;;;;;5017264;28;19914;-73
2023/12/01 01:05:43;;;;;;;;;;;3.30;1.00;;;;;;5015909;28;19913;-73
2023/12/01 01:08:08;;;;;;;;;;;3.40;1.00;;;;;;5016762;28;19917;-74
2023/12/01 01:10:34;;;;;;;;;;;3.40;1.00;;;;;;5028037;28;19909;-73
2023/12/01 01:16:02;;;;;;;;;;;3.40;1.00;;;;;;5022628;28;19959;-78
2023/12/01 01:21:49;;;;;;;;;;;3.40;1.00;;;;;;5026381;28;19963;-78
2023/12/01 01:27:17;;;;;;;;;;;3.40;1.00;;;;;;5029312;28;19916;-78
2023/12/01 01:30:01;;;;;;;;;;;3.30;1.00;;;;;;5016288;28;19910;-78
2023/12/01 01:38:32;;;;;;;;;;;3.30;1.00;;;;;;5028667;28;19916;-78
2023/12/01 01:41:19;;;;;;;;;;;3.30;1.00;;;;;;5016443;28;19909;-78
2023/12/01 01:47:08;;;;;;;;;;;3.40;1.00;;;;;;5015050;28;19920;-78
2023/12/01 01:52:39;;;;;;;;;;;3.30;1.00;;;;;;5016225;28;19916;-78
2023/12/01 01:58:13;;;;;;;;;;;3.20;1.00;;;;;;5020490;28;19967;-73
2023/12/01 02:00:39;;;;;;;;;;;3.30;1.00;;;;;;5035839;28;19913;-73
2023/12/01 02:03:04;;;;;;;;;;;3.20;1.00;;;;;;5028944;28;20010;-73
2023/12/01 02:05:33;;;;;;;;;;;3.20;1.00;;;;;;5027628;28;19917;-73
2023/12/01 02:08:18;;;;;;;;;;;3.20;1.00;;;;;;5003670;28;20393;-73
2023/12/01 02:10:43;;;;;;;;;;;3.20;1.00;;;;;;5011452;28;19916;-73
2023/12/01 02:13:14;;;;;;;;;;;3.10;1.00;;;;;;5021090;28;19913;-78
2023/12/01 02:15:49;;;;;;;;;;;3.10;1.00;;;;;;5015860;28;20476;-78
2023/12/01 02:18:37;;;;;;;;;;;3.10;1.00;;;;;;5015719;28;19909;-78
2023/12/01 02:27:09;;;;;;;;;;;3.20;1.00;;;;;;5005562;28;19916;-78
2023/12/01 02:29:34;;;;;;;;;;;3.10;1.00;;;;;;4997754;28;20276;-73
2023/12/01 02:32:00;;;;;;;;;;;3.10;1.00;;;;;;5015498;28;19960;-73
2023/12/01 02:34:25;;;;;;;;;;;3.00;1.00;;;;;;5029721;28;19921;-74
2023/12/01 02:36:53;;;;;;;;;;;3.10;1.00;;;;;;5015403;28;19910;-73
2023/12/01 02:39:19;;;;;;;;;;;3.10;1.00;;;;;;5018246;28;19917;-73
2023/12/01 02:41:45;;;;;;;;;;;3.00;1.00;;;;;;5034515;28;19909;-73
2023/12/01 02:50:26;;;;;;;;;;;3.00;1.00;;;;;;5021648;28;19971;-78
2023/12/01 02:59:13;;;;;;;;;;;3.00;1.00;;;;;;5019172;28;19916;-78
2023/12/01 03:04:43;;;;;;;;;;;3.10;1.00;;;;;;5012163;28;19963;-78
2023/12/01 03:07:08;;;;;;;;;;;3.10;1.00;;;;;;5016301;28;20012;-78
2023/12/01 03:09:34;;;;;;;;;;;3.10;1.00;;;;;;5014744;28;19944;-78
2023/12/01 03:12:01;;;;;;;;;;;3.10;1.00;;;;;;5014827;28;19914;-78
2023/12/01 03:14:26;;;;;;;;;;;3.10;1.00;;;;;;5008840;28;19963;-73
2023/12/01 03:16:56;;;;;;;;;;;3.10;1.00;;;;;;5016047;28;19913;-73
2023/12/01 03:19:25;;;;;;;;;;;3.10;1.00;;;;;;5019035;28;20280;-73
2023/12/01 03:21:50;;;;;;;;;;;3.10;1.00;;;;;;5014136;28;19917;-73
2023/12/01 03:24:16;;;;;;;;;;;3.10;1.00;;;;;;5014205;28;20339;-74
2023/12/01 03:26:43;;;;;;;;;;;3.10;1.00;;;;;;5018076;28;19913;-73
2023/12/01 03:35:15;;;;;;;;;;;3.20;1.00;;;;;;5003771;28;19916;-78
2023/12/01 03:40:44;;;;;;;;;;;3.20;1.00;;;;;;5014582;28;19968;-78
2023/12/01 03:43:10;;;;;;;;;;;3.20;1.00;;;;;;5026067;28;19913;-74
2023/12/01 03:45:35;;;;;;;;;;;3.20;1.00;;;;;;5019741;28;19920;-73
2023/12/01 03:48:25;;;;;;;;;;;3.20;1.00;;;;;;5016472;28;19917;-73
2023/12/01 03:50:50;;;;;;;;;;;3.20;1.00;;;;;;5029542;28;19913;-73
2023/12/01 03:53:16;;;;;;;;;;;3.20;1.00;;;;;;5023458;28;19963;-73
2023/12/01 03:55:43;;;;;;;;;;;3.20;1.00;;;;;;5014492;28;19913;-73
2023/12/01 03:58:25;;;;;;;;;;;3.20;1.00;;;;;;5014704;28;20004;-78
2023/12/01 04:00:51;;;;;;;;;;;3.20;1.00;;;;;;5014011;28;19913;-78
2023/12/01 04:03:31;;;;;;;;;;;3.30;1.00;;;;;;5014220;28;20276;-78
2023/12/01 04:12:13;;;;;;;;;;;3.30;1.00;;;;;;5014230;28;19916;-78
2023/12/01 04:17:45;;;;;;;;;;;3.30;1.00;;;;;;5014071;28;19932;-78
2023/12/01 04:20:27;;;;;;;;;;;3.40;1.00;;;;;;5013808;28;20004;-78
2023/12/01 04:23:02;;;;;;;;;;;3.40;1.00;;;;;;5010261;28;19921;-78
2023/12/01 04:28:31;;;;;;;;;;;3.40;1.00;;;;;;5014367;28;20404;-73
2023/12/01 04:31:01;;;;;;;;;;;3.30;1.00;;;;;;5011806;28;19922;-73
2023/12/01 04:33:26;;;;;;;;;;;3.30;1.00;;;;;;5011304;28;19960;-73
2023/12/01 04:35:52;;;;;;;;;;;3.30;1.00;;;;;;5024333;28;19909;-73
2023/12/01 04:38:18;;;;;;;;;;;3.30;1.00;;;;;;5016321;28;19996;-73
2023/12/01 04:40:44;;;;;;;;;;;;;;;;;;5012523;28;19981;-73
2023/12/01 04:43:13;;;;;;;;;;;3.20;1.00;;;;;;5013417;28;19914;-73
2023/12/01 04:45:38;;;;;;;;;;;3.20;1.00;;;;;;5014195;28;19972;-73
2023/12/01 04:48:07;;;;;;;;;;;3.20;1.00;;;;;;5020785;28;19956;-73
2023/12/01 04:50:34;;;;;;;;;;;3.20;1.00;;;;;;5018910;28;19992;-73
2023/12/01 04:53:01;;;;;;;;;;;3.20;1.00;;;;;;5022626;28;19939;-73
2023/12/01 04:55:28;;;;;;;;;;;3.10;1.00;;;;;;5021844;28;20025;-73
2023/12/01 04:57:54;;;;;;;;;;;3.10;1.00;;;;;;5028541;28;19968;-73
2023/12/01 05:03:23;;;;;;;;;;;3.10;1.00;;;;;;4997581;28;19920;-78
2023/12/01 05:08:51;;;;;;;;;;;3.10;1.00;;;;;;5017040;28;19920;-78
2023/12/01 05:14:19;;;;;;;;;;;3.10;1.00;;;;;;5004382;28;19920;-73
2023/12/01 05:16:45;;;;;;;;;;;3.00;1.00;;;;;;5022653;28;20280;-73
2023/12/01 05:19:11;;;;;;;;;;;3.00;1.00;;;;;;5016744;28;19964;-73
2023/12/01 05:21:37;;;;;;;;;;;3.00;1.00;;;;;;5019835;28;19921;-75
2023/12/01 05:24:02;;;;;;;;;;;3.00;1.00;;;;;;5027022;28;19945;-75
2023/12/01 05:26:31;;;;;;;;;;;;;;;;;;5016067;28;19918;-72
2023/12/01 05:29:19;;;;;;;;;;;3.00;1.00;;;;;;5016383;28;19921;-74
2023/12/01 05:31:55;;;;;;;;;;;3.00;1.00;;;;;;5010931;28;19968;-75
2023/12/01 05:34:20;;;;;;;;;;;3.00;1.00;;;;;;5016308;28;19935;-75
2023/12/01 05:36:49;;;;;;;;;;;3.00;1.00;;;;;;5018260;28;20358;-75
2023/12/01 05:39:33;;;;;;;;;;;3.00;1.00;;;;;;5009102;28;19921;-82
2023/12/01 05:42:07;;;;;;;;;;;3.00;1.00;;;;;;5016550;28;19909;-76
2023/12/01 05:44:43;;;;;;;;;;;3.00;1.00;;;;;;5016281;28;20280;-79
2023/12/01 05:47:08;;;;;;;;;;;2.90;1.00;;;;;;5004532;28;19996;-76
2023/12/01 05:49:34;;;;;;;;;;;3.00;1.00;;;;;;5016762;28;20016;-77
2023/12/01 05:52:01;;;;;;;;;;;3.00;1.00;;;;;;5016177;28;19909;-77
2023/12/01 05:54:26;;;;;;;;;;;3.00;1.00;;;;;;5017510;28;19960;-77
2023/12/01 05:57:07;;;;;;;;;;;;;;;;;;5021893;28;19917;-77
2023/12/01 05:59:49;;;;;;;;;;;3.00;1.00;;;;;;5032669;28;19909;-76
2023/12/01 06:02:25;;;;;;;;;;;3.00;1.00;;;;;;5010339;28;19910;-76
2023/12/01 06:04:51;;;;;;;;;;;;;;;;;;5015821;28;20019;-77
2023/12/01 06:10:37;;;;;;;;;;;3.10;1.00;;;;;;5011316;28;19916;-77
2023/12/01 06:16:13;;;;;;;;;;;3.10;1.00;;;;;;5020358;28;19936;-72
2023/12/01 06:18:49;;;;;;;;;;;3.10;1.00;;;;;;5021603;28;19910;-77
2023/12/01 06:21:14;;;;;;;;;;;3.10;1.00;;;;;;5015503;28;20267;-73
2023/12/01 06:23:40;;;;;;;;;;;3.10;1.00;;;;;;5015386;28;19928;-73
2023/12/01 06:26:07;;;;;;;;;;;3.10;1.00;;;;;;5024846;28;20331;-73
2023/12/01 06:28:33;;;;;;;;;;;3.10;1.00;;;;;;5013393;28;20364;-73
2023/12/01 06:31:25;;;;;;;;;;;3.10;1.00;;;;;;5015595;28;19921;-77
2023/12/01 06:36:58;;;;;;;;;;;3.00;1.00;;;;;;5011887;28;19917;-76
2023/12/01 06:39:55;;;;;;;;;;;3.00;1.00;;;;;;5022831;28;19917;-77
2023/12/01 06:42:25;;;;;;;;;;;3.00;1.00;;;;;;5015022;28;19917;-78
2023/12/01 06:44:51;;;;;;;;;;;;;;;;;;5019718;28;19976;-75
2023/12/01 06:47:19;;;;;;;;;;;;;;;;;;5016201;28;19913;-73
2023/12/01 06:50:15;;;;;;;;;;;3.10;1.00;;;;;;5014932;28;19963;-75
2023/12/01 06:52:58;;;;;;;;;;;3.10;1.00;;;;;;5015184;28;19960;-75
2023/12/01 06:55:31;;;;;;;;;;;3.20;1.00;;;;;;5006471;28;19916;-75
2023/12/01 06:57:58;;;;;;;;;;;3.20;1.00;;;;;;5005351;28;20136;-75
2023/12/01 07:00:36;;;;;;;;;;;3.20;1.00;;;;;;5015379;28;20325;-81
2023/12/01 07:06:25;;;;;;;;;;;3.20;1.00;;;;;;5015021;28;19928;-77
2023/12/01 07:09:17;;;;;;;;;;;3.10;1.00;;;;;;5019606;28;19924;-77
2023/12/01 07:11:55;;;;;;;;;;;3.10;1.00;;;;;;5014849;28;19910;-77
2023/12/01 07:14:39;;;;;;;;;;;3.20;1.00;;;;;;5022255;28;19925;-77
2023/12/01 07:17:06;;;;;;;;;;;3.20;1.00;;;;;;5015084;28;19910;-76
2023/12/01 07:20:13;;;;;;;;;;;3.20;1.00;;;;;;5012242;28;19914;-76
2023/12/01 07:23:19;;;;;;;;;;;3.30;1.00;;;;;;5008545;28;19910;-76
2023/12/01 07:25:50;;;;;;;;;;;3.30;1.00;;;;;;4994786;28;19921;-76
2023/12/01 07:28:17;;;;;;;;;;;3.30;1.00;;;;;;5001374;28;20000;-77
2023/12/01 07:30:46;;;;;;;;;;;3.20;1.00;;;;;;5011470;28;19920;-78
2023/12/01 07:33:25;;;;;;;;;;;3.20;1.00;;;;;;5010074;28;19913;-77
2023/12/01 07:35:51;;;;;;;;;;;3.20;1.00;;;;;;5016671;28;19919;-76
2023/12/01 07:38:31;;;;;;;;;;;3.20;1.00;;;;;;5019655;28;20000;-77
2023/12/01 07:41:07;;;;;;;;;;;3.20;1.00;;;;;;5006857;28;19910;-77
2023/12/01 07:46:37;;;;;;;;;;;3.20;1.00;;;;;;5013326;28;19929;-79
2023/12/01 07:55:09;;;;;;;;;;;3.20;1.00;;;;;;5012682;28;19917;-79
2023/12/01 08:03:44;;;;;;;;;;;3.10;1.00;;;;;;5014779;28;19923;-76
2023/12/01 08:06:10;;;;;;;;;;;3.10;1.00;;;;;;5002230;28;19910;-77
2023/12/01 08:08:55;;;;;;;;;;;3.10;1.00;;;;;;5014188;28;19914;-77
2023/12/01 08:11:55;;;;;;;;;;;3.10;1.00;;;;;;5014146;28;19918;-77
2023/12/01 08:17:24;;;;;;;;;;;3.10;1.00;;;;;;5014371;28;19921;-74
2023/12/01 08:19:55;;;;;;;;;;;3.10;1.00;;;;;;5010216;28;19910;-74
2023/12/01 08:22:25;;;;;;;;;;;3.10;1.00;;;;;;5015385;28;19921;-74
2023/12/01 08:24:51;;;;;;;;;;;3.20;1.00;;;;;;5012390;28;20048;-75
2023/12/01 08:27:19;;;;;;;;;;;3.20;1.00;;;;;;5017866;28;20004;-74
2023/12/01 08:29:52;;;;;;;;;;;3.20;1.00;;;;;;5034705;28;19909;-74
2023/12/01 08:32:17;;;;;;;;;;;3.10;1.00;;;;;;5017361;28;19948;-74
2023/12/01 08:34:55;;;;;;;;;;;3.10;1.00;;;;;;5025234;28;19999;-74
2023/12/01 08:37:21;;;;;;;;;;;3.10;1.00;;;;;;5017736;28;19913;-74
2023/12/01 08:39:55;;;;;;;;;;;3.10;1.00;;;;;;5023899;28;19919;-74
2023/12/01 08:42:21;;;;;;;;;;;3.10;1.00;;;;;;5021142;28;19964;-74
2023/12/01 08:44:55;;;;;;;;;;;3.10;1.00;;;;;;4998176;28;19953;-74
2023/12/01 08:47:25;;;;;;;;;;;3.10;1.00;;;;;;5017422;28;19921;-75
2023/12/01 08:49:56;;;;;;;;;;;3.00;1.00;;;;;;5017027;28;19913;-74
2023/12/01 08:52:22;;;;;;;;;;;3.00;1.00;;;;;;5013298;28;19909;-74
2023/12/01 08:54:47;;;;;;;;;;;3.00;1.00;;;;;;5017279;28;19916;-74
2023/12/01 08:57:13;;;;;;;;;;;3.00;1.00;;;;;;5021924;28;20324;-74
2023/12/01 08:59:43;;;;;;;;;;;3.00;1.00;;;;;;5016650;28;19914;-74
2023/12/01 09:02:09;;;;;;;;;;;3.10;1.00;;;;;;5030302;28;19945;-80
2023/12/01 09:04:37;;;;;;;;;;;3.20;1.00;;;;;;5016990;28;19964;-81
2023/12/01 09:07:19;;;;;;;;;;;3.20;1.00;;;;;;5013839;28;19920;-80
2023/12/01 09:16:07;;;;;;;;;;;3.50;1.00;;;;;;4997437;28;20389;-80
2023/12/01 09:18:37;;;;;;;;;;;3.50;1.00;;;;;;5011339;28;19914;-75
2023/12/01 09:21:03;;;;;;;;;;;3.60;1.00;;;;;;5016788;28;19909;-73
2023/12/01 09:23:28;;;;;;;;;;;3.70;1.00;;;;;;5016166;28;20455;-73
2023/12/01 09:25:55;;;;;;;;;;;3.80;1.00;;;;;;5024500;28;19914;-74
2023/12/01 09:34:19;;;;;;;;;;;;;;;;;;5007859;28;20436;-81
2023/12/01 09:43:07;;;;;;;;;;;3.50;1.00;;;;;;5016531;28;19968;-80
2023/12/01 09:45:37;;;;;;;;;;;3.40;1.00;;;;;;5015238;28;20347;-80
2023/12/01 09:48:31;;;;;;;;;;;3.40;1.00;;;;;;5031307;28;19913;-80
2023/12/01 10:00:11;;;;;;;;;;;3.60;1.00;;;;;;5010366;28;19916;-80
2023/12/01 10:02:40;;;;;;;;;;;3.60;1.00;;;;;;5015796;28;19996;-74
2023/12/01 10:05:06;;;;;;;;;;;3.60;1.00;;;;;;5022817;28;19921;-74
2023/12/01 10:07:43;;;;;;;;;;;3.60;1.00;;;;;;5018116;28;19910;-74
2023/12/01 10:10:30;;;;;;;;;;;3.70;1.00;;;;;;5027774;28;19921;-74
2023/12/01 10:13:06;;;;;;;;;;;3.70;1.00;;;;;;5015536;28;19968;-74
2023/12/01 10:15:33;;;;;;;;;;;3.70;1.00;;;;;;5015797;28;19914;-74
2023/12/01 10:18:12;;;;;;;;;;;3.70;1.00;;;;;;5015980;28;19917;-74
2023/12/01 10:20:41;;;;;;;;;;;3.70;1.00;;;;;;5010446;28;19991;-74
2023/12/01 10:23:07;;;;;;;;;;;;;;;;;;5012198;28;19952;-74
2023/12/01 10:25:33;;;;;;;;;;;3.80;1.00;;;;;;5019884;28;19918;-74
2023/12/01 10:27:59;;;;;;;;;;;3.70;1.00;;;;;;5013520;28;20000;-74
2023/12/01 10:30:24;;;;;;;;;;;3.70;1.00;;;;;;5015326;28;20368;-74
2023/12/01 10:32:50;;;;;;;;;;;3.70;1.00;;;;;;5014862;28;20304;-74
2023/12/01 10:35:16;;;;;;;;;;;3.70;1.00;;;;;;5014029;28;19960;-73
2023/12/01 10:37:43;;;;;;;;;;;3.70;1.00;;;;;;5024433;28;20371;-72
2023/12/01 10:40:10;;;;;;;;;;;3.80;1.00;;;;;;5024725;28;19984;-73
2023/12/01 10:42:35;;;;;;;;;;;3.70;1.00;;;;;;5024595;28;19992;-72
2023/12/01 10:45:01;;;;;;;;;;;3.70;1.00;;;;;;5017055;28;20004;-73
2023/12/01 10:50:30;;;;;;;;;;;3.80;1.00;;;;;;5025987;28;19956;-76
2023/12/01 10:56:02;;;;;;;;;;;3.80;1.00;;;;;;5009689;28;19916;-78
2023/12/01 10:58:45;;;;;;;;;;;3.70;1.00;;;;;;5014693;28;19914;-76
2023/12/01 11:01:14;;;;;;;;;;;3.70;1.00;;;;;;5014873;28;19960;-76
2023/12/01 11:03:40;;;;;;;;;;;3.60;1.00;;;;;;5025355;28;20399;-73
2023/12/01 11:06:14;;;;;;;;;;;3.60;1.00;;;;;;5014875;28;19914;-73
2023/12/01 11:08:46;;;;;;;;;;;3.70;1.00;;;;;;5017858;28;20349;-73
2023/12/01 11:11:11;;;;;;;;;;;3.70;1.00;;;;;;5022017;28;19922;-72
2023/12/01 11:13:57;;;;;;;;;;;3.80;1.00;;;;;;5013152;28;19988;-73
2023/12/01 11:16:23;;;;;;;;;;;3.80;1.00;;;;;;5027021;28;20328;-73
2023/12/01 11:19:08;;;;;;;;;;;3.80;1.00;;;;;;5014813;28;19936;-76
2023/12/01 11:22:01;;;;;;;;;;;3.80;1.00;;;;;;5017196;28;19913;-79
2023/12/01 11:24:31;;;;;;;;;;;;;;;;;;5001874;28;19953;-77
2023/12/01 11:27:26;;;;;;;;;;;3.80;1.00;;;;;;5012362;28;20379;-77
2023/12/01 11:30:21;;;;;;;;;;;4.00;1.00;;;;;;5014344;28;19944;-77
2023/12/01 11:32:47;;;;;;;;;;;4.00;1.00;;;;;;4998270;28;19921;-73
2023/12/01 11:35:14;;;;;;;;;;;4.00;1.00;;;;;;5030032;28;20004;-73
2023/12/01 11:37:49;;;;;;;;;;;;;;;;;;5013536;28;19992;-72
2023/12/01 11:40:18;;;;;;;;;;;4.00;1.00;;;;;;5002416;28;19967;-73
2023/12/01 11:42:49;;;;;;;;;;;4.10;1.00;;;;;;5015283;28;19909;-73
2023/12/01 11:45:35;;;;;;;;;;;4.30;1.00;;;;;;5028637;28;19913;-73
2023/12/01 11:48:20;;;;;;;;;;;4.30;1.00;;;;;;5018780;28;19921;-76
2023/12/01 11:50:46;;;;;;;;;;;4.40;1.00;;;;;;5014492;28;19913;-77
2023/12/01 11:53:17;;;;;;;;;;;4.40;1.00;;;;;;5024570;28;20276;-76
2023/12/01 11:55:43;;;;;;;;;;;4.50;1.00;;;;;;5020033;28;19913;-76
2023/12/01 11:58:13;;;;;;;;;;;4.50;1.00;;;;;;5019447;28;19913;-76
2023/12/01 12:00:39;;;;;;;;;;;4.50;1.00;;;;;;5020344;28;19909;-76
2023/12/01 12:06:34;;;;;;;;;;;4.20;1.00;;;;;;5029674;28;19924;-76
2023/12/01 12:12:09;;;;;;;;;;;3.90;1.00;;;;;;5020529;28;19959;-77
2023/12/01 12:17:55;;;;;;;;;;;3.90;1.00;;;;;;5031617;28;19964;-76
2023/12/01 12:20:25;;;;;;;;;;;3.90;1.00;;;;;;5020262;28;20004;-73
2023/12/01 12:22:55;;;;;;;;;;;;;;;;;;5033037;28;20070;-73
2023/12/01 12:25:33;;;;;;;;;;;3.60;1.00;;;;;;5033215;28;19921;-73
2023/12/01 12:27:59;;;;;;;;;;;3.50;1.00;;;;;;5020169;28;19914;-72
2023/12/01 12:30:24;;;;;;;;;;;3.50;1.00;;;;;;5019372;28;20316;-73
2023/12/01 12:33:01;;;;;;;;;;;3.50;1.00;;;;;;5029525;28;19914;-72
2023/12/01 12:35:37;;;;;;;;;;;3.60;1.00;;;;;;5022410;28;19917;-73
2023/12/01 12:38:07;;;;;;;;;;;3.60;1.00;;;;;;5020259;28;19920;-72
2023/12/01 12:40:34;;;;;;;;;;;3.50;1.00;;;;;;5020232;28;19913;-73
2023/12/01 12:43:02;;;;;;;;;;;3.50;1.00;;;;;;5020197;28;19913;-73
2023/12/01 12:45:27;;;;;;;;;;;3.50;1.00;;;;;;5020283;28;20257;-73
2023/12/01 12:47:54;;;;;;;;;;;;;;;;;;5026597;28;20000;-73
2023/12/01 12:56:26;;;;;;;;;;;3.50;1.00;;;;;;5036801;28;19917;-77
2023/12/01 12:58:53;;;;;;;;;;;3.50;1.00;;;;;;5006184;28;19925;-74
2023/12/01 13:01:20;;;;;;;;;;;3.40;1.00;;;;;;5020577;28;20512;-73
2023/12/01 13:03:49;;;;;;;;;;;3.50;1.00;;;;;;5032001;28;19960;-73
2023/12/01 13:06:15;;;;;;;;;;;3.50;1.00;;;;;;5021031;28;19917;-74
2023/12/01 13:08:44;;;;;;;;;;;3.50;1.00;;;;;;5015170;28;19917;-78
2023/12/01 13:11:25;;;;;;;;;;;3.50;1.00;;;;;;5023064;28;19910;-76
2023/12/01 13:17:13;;;;;;;;;;;3.30;1.00;;;;;;5017787;28;19997;-77
2023/12/01 13:19:40;;;;;;;;;;;3.30;1.00;;;;;;5014261;28;19949;-74
2023/12/01 13:22:06;;;;;;;;;;;3.30;1.00;;;;;;5019980;28;19917;-73
2023/12/01 13:24:32;;;;;;;;;;;3.30;1.00;;;;;;5026061;28;19965;-73
2023/12/01 13:26:57;;;;;;;;;;;3.30;1.00;;;;;;5016345;28;19956;-72
2023/12/01 13:29:23;;;;;;;;;;;3.30;1.00;;;;;;5012780;28;19909;-73
2023/12/01 13:31:48;;;;;;;;;;;3.30;1.00;;;;;;5019281;28;19956;-73
2023/12/01 13:34:25;;;;;;;;;;;3.30;1.00;;;;;;5022286;28;19914;-75
2023/12/01 13:37:02;;;;;;;;;;;3.20;1.00;;;;;;5014952;28;19959;-74
2023/12/01 13:39:31;;;;;;;;;;;3.20;1.00;;;;;;5013142;28;20477;-74
2023/12/01 13:41:57;;;;;;;;;;;;;;;;;;5020011;28;19913;-73
2023/12/01 13:44:22;;;;;;;;;;;3.20;1.00;;;;;;5001593;28;20339;-74
2023/12/01 13:46:48;;;;;;;;;;;3.20;1.00;;;;;;5018746;28;19920;-74
2023/12/01 13:49:16;;;;;;;;;;;3.30;1.00;;;;;;5017004;28;19914;-73
2023/12/01 13:54:45;;;;;;;;;;;3.20;1.00;;;;;;5017517;28;20315;-73
2023/12/01 13:57:10;;;;;;;;;;;3.20;1.00;;;;;;5020958;28;19913;-74
2023/12/01 13:59:37;;;;;;;;;;;;;;;;;;5004309;28;19952;-74
2023/12/01 14:02:07;;;;;;;;;;;3.20;1.00;;;;;;5013403;28;19967;-74
2023/12/01 14:04:36;;;;;;;;;;;3.20;1.00;;;;;;5016164;28;20376;-72
2023/12/01 14:07:04;;;;;;;;;;;3.20;1.00;;;;;;5021701;28;19924;-72
2023/12/01 14:09:43;;;;;;;;;;;3.30;1.00;;;;;;5016939;28;19915;-74
2023/12/01 14:15:12;;;;;;;;;;;3.20;1.00;;;;;;5004550;28;19920;-80
2023/12/01 14:17:37;;;;;;;;;;;3.20;1.00;;;;;;5011910;28;19918;-72
2023/12/01 14:20:03;;;;;;;;;;;3.10;1.00;;;;;;5021789;28;19910;-72
2023/12/01 14:22:29;;;;;;;;;;;3.10;1.00;;;;;;5021159;28;19928;-72
2023/12/01 14:24:54;;;;;;;;;;;3.00;1.00;;;;;;5016129;28;19924;-72
2023/12/01 14:27:25;;;;;;;;;;;3.00;1.00;;;;;;5014600;28;19914;-72
2023/12/01 14:29:51;;;;;;;;;;;3.10;1.00;;;;;;5021287;28;19913;-72
2023/12/01 14:32:17;;;;;;;;;;;;;;;;;;5022733;28;20044;-72
2023/12/01 14:34:43;;;;;;;;;;;3.00;1.00;;;;;;5014992;28;19913;-74
2023/12/01 14:37:08;;;;;;;;;;;3.10;1.00;;;;;;5015775;28;19913;-74
2023/12/01 14:39:34;;;;;;;;;;;3.10;1.00;;;;;;5016472;28;19913;-75
2023/12/01 14:42:01;;;;;;;;;;;3.10;1.00;;;;;;5017314;28;19956;-74
2023/12/01 14:44:37;;;;;;;;;;;3.10;1.00;;;;;;5021291;28;20414;-73
2023/12/01 14:47:09;;;;;;;;;;;3.10;1.00;;;;;;5015790;28;19914;-75
2023/12/01 14:49:34;;;;;;;;;;;3.10;1.00;;;;;;5017534;28;19925;-73
2023/12/01 14:52:00;;;;;;;;;;;3.00;1.00;;;;;;5017626;28;19909;-73
2023/12/01 14:54:26;;;;;;;;;;;3.00;1.00;;;;;;5031872;28;20288;-72
2023/12/01 14:56:52;;;;;;;;;;;2.90;1.00;;;;;;5019653;28;20004;-73
2023/12/01 14:59:19;;;;;;;;;;;2.90;1.00;;;;;;5008224;28;19914;-73
2023/12/01 15:01:51;;;;;;;;;;;2.90;1.00;;;;;;5005026;28;20332;-74
2023/12/01 15:04:19;;;;;;;;;;;;;;;;;;5034156;28;19992;-74
2023/12/01 15:06:45;;;;;;;;;;;2.80;1.00;;;;;;5016996;28;20257;-72
2023/12/01 15:09:14;;;;;;;;;;;2.80;1.00;;;;;;5021921;28;19913;-72
2023/12/01 15:11:44;;;;;;;;;;;2.80;1.00;;;;;;5013719;28;19913;-72
2023/12/01 15:14:10;;;;;;;;;;;2.80;1.00;;;;;;5017372;28;19949;-73
2023/12/01 15:16:36;;;;;;;;;;;2.70;1.00;;;;;;5018648;28;19921;-73
2023/12/01 15:19:02;;;;;;;;;;;2.50;1.00;;;;;;5016088;28;19960;-73
2023/12/01 15:21:31;;;;;;;;;;;2.50;1.00;;;;;;5017346;28;19955;-73
2023/12/01 15:23:57;;;;;;;;;;;2.50;1.00;;;;;;5015680;28;19918;-72
2023/12/01 15:26:23;;;;;;;;;;;2.40;1.00;;;;;;5023060;28;19962;-72
2023/12/01 15:28:48;;;;;;;;;;;2.40;1.00;;;;;;5017063;28;19921;-72
2023/12/01 15:31:15;;;;;;;;;;;2.30;1.00;;;;;;5019383;28;20008;-73
2023/12/01 15:33:55;;;;;;;;;;;2.30;1.00;;;;;;5013365;28;20018;-73
2023/12/01 15:36:25;;;;;;;;;;;2.30;1.00;;;;;;5025130;28;20280;-72
2023/12/01 15:38:55;;;;;;;;;;;2.30;1.00;;;;;;5015066;28;19921;-72
2023/12/01 15:41:21;;;;;;;;;;;2.30;1.00;;;;;;5021905;28;19969;-72
2023/12/01 15:43:47;;;;;;;;;;;2.20;1.00;;;;;;5014287;28;19941;-73
2023/12/01 15:46:13;;;;;;;;;;;2.20;1.00;;;;;;5014192;28;20361;-73
2023/12/01 15:48:38;;;;;;;;;;;2.10;1.00;;;;;;5014116;28;19951;-73
2023/12/01 15:51:04;;;;;;;;;;;2.10;1.00;;;;;;5014531;28;19913;-72
2023/12/01 15:53:30;;;;;;;;;;;2.10;1.00;;;;;;5022892;28;19967;-74
2023/12/01 15:55:56;;;;;;;;;;;2.10;1.00;;;;;;5014229;28;20363;-75
2023/12/01 15:58:21;;;;;;;;;;;2.10;1.00;;;;;;5021135;28;19913;-76
2023/12/01 16:00:49;;;;;;;;;;;2.10;1.00;;;;;;5015322;28;19926;-75
2023/12/01 16:06:31;;;;;;;;;;;2.00;1.00;;;;;;5014018;28;20008;-76
2023/12/01 16:08:57;;;;;;;;;;;2.00;1.00;;;;;;5015654;28;20327;-74
2023/12/01 16:11:23;;;;;;;;;;;1.90;1.00;;;;;;5013866;28;19913;-73
2023/12/01 16:13:49;;;;;;;;;;;2.00;1.00;;;;;;5013764;28;19920;-73
2023/12/01 16:16:14;;;;;;;;;;;1.90;1.00;;;;;;5014046;28;19910;-74
2023/12/01 16:18:40;;;;;;;;;;;1.90;1.00;;;;;;5013500;28;19914;-74
2023/12/01 16:21:07;;;;;;;;;;;2.00;1.00;;;;;;5013988;28;19920;-76
2023/12/01 16:23:33;;;;;;;;;;;2.00;1.00;;;;;;5016739;28;19913;-77
2023/12/01 16:26:01;;;;;;;;;;;1.90;1.00;;;;;;5018477;28;19978;-75
2023/12/01 16:28:37;;;;;;;;;;;1.90;1.00;;;;;;5014146;28;19914;-76
2023/12/01 16:34:25;;;;;;;;;;;1.80;1.00;;;;;;5016749;28;19920;-78
2023/12/01 16:37:25;;;;;;;;;;;1.80;1.00;;;;;;5016948;28;19914;-78
2023/12/01 16:40:19;;;;;;;;;;;1.80;1.00;;;;;;5025369;28;19914;-76
2023/12/01 16:45:49;;;;;;;;;;;1.80;1.00;;;;;;5017441;28;19939;-77
2023/12/01 16:51:18;;;;;;;;;;;1.80;1.00;;;;;;5015619;28;20008;-74
2023/12/01 16:53:49;;;;;;;;;;;1.90;1.00;;;;;;5017571;28;19937;-74
2023/12/01 16:56:19;;;;;;;;;;;1.90;1.00;;;;;;5018449;28;19953;-75
2023/12/01 16:58:45;;;;;;;;;;;1.90;1.00;;;;;;5017057;28;19910;-74
2023/12/01 17:01:13;;;;;;;;;;;1.90;1.00;;;;;;5019769;28;19920;-74
2023/12/01 17:03:43;;;;;;;;;;;1.90;1.00;;;;;;5006706;28;19922;-74
2023/12/01 17:06:19;;;;;;;;;;;1.80;1.00;;;;;;5014553;28;19967;-75
2023/12/01 17:08:55;;;;;;;;;;;1.80;1.00;;;;;;5016828;28;19916;-75
2023/12/01 17:11:25;;;;;;;;;;;1.80;1.00;;;;;;5015860;28;19959;-74
2023/12/01 17:13:51;;;;;;;;;;;1.80;1.00;;;;;;5014886;28;20004;-75
2023/12/01 17:16:19;;;;;;;;;;;1.80;1.00;;;;;;5005107;28;19945;-74
2023/12/01 17:19:01;;;;;;;;;;;1.90;1.00;;;;;;5011269;28;19921;-74
2023/12/01 17:21:31;;;;;;;;;;;1.80;1.00;;;;;;5026198;28;20265;-74
2023/12/01 17:23:57;;;;;;;;;;;1.80;1.00;;;;;;5023758;28;20012;-74
2023/12/01 17:26:22;;;;;;;;;;;1.80;1.00;;;;;;5025361;28;19953;-74
2023/12/01 17:28:48;;;;;;;;;;;1.70;1.00;;;;;;5026624;28;20007;-74
2023/12/01 17:31:14;;;;;;;;;;;1.70;1.00;;;;;;5014626;28;19910;-74
2023/12/01 17:33:39;;;;;;;;;;;1.70;1.00;;;;;;5019095;28;19920;-74
2023/12/01 17:36:06;;;;;;;;;;;1.70;1.00;;;;;;5036590;28;19959;-75
2023/12/01 17:38:31;;;;;;;;;;;1.70;1.00;;;;;;5021050;28;20376;-75
2023/12/01 17:40:57;;;;;;;;;;;1.70;1.00;;;;;;5017380;28;19917;-75
2023/12/01 17:43:23;;;;;;;;;;;1.60;1.00;;;;;;5024967;28;19914;-74
2023/12/01 17:45:55;;;;;;;;;;;1.70;1.00;;;;;;5025707;28;19914;-74
2023/12/01 17:48:55;;;;;;;;;;;1.70;1.00;;;;;;5028398;28;20312;-75
2023/12/01 17:51:21;;;;;;;;;;;;;;;;;;5016050;28;19925;-73
2023/12/01 17:56:49;;;;;;;;;;;1.60;1.00;;;;;;5003658;28;19917;-78
2023/12/01 18:02:18;;;;;;;;;;;1.60;1.00;;;;;;5007188;28;20399;-78
2023/12/01 18:04:44;;;;;;;;;;;1.70;1.00;;;;;;5014363;28;19918;-78
2023/12/01 18:07:13;;;;;;;;;;;1.70;1.00;;;;;;5021724;28;19913;-75
2023/12/01 18:09:55;;;;;;;;;;;1.70;1.00;;;;;;5016073;28;20361;-75
2023/12/01 18:12:21;;;;;;;;;;;1.70;1.00;;;;;;5015831;28;19910;-74
2023/12/01 18:14:49;;;;;;;;;;;;;;;;;;5015663;28;19909;-74
2023/12/01 18:17:15;;;;;;;;;;;;;;;;;;5039611;28;19964;-73
2023/12/01 18:22:44;;;;;;;;;;;1.70;1.00;;;;;;5003656;28;19920;-83
2023/12/01 18:28:19;;;;;;;;;;;1.80;1.00;;;;;;5023201;28;20411;-82
2023/12/01 18:31:07;;;;;;;;;;;1.80;1.00;;;;;;5015546;28;20272;-82
2023/12/01 18:36:35;;;;;;;;;;;1.60;1.00;;;;;;5015461;28;19993;-82
2023/12/01 18:42:05;;;;;;;;;;;1.60;1.00;;;;;;5024064;28;19964;-82